Time;durP1;ratioP1;P1;durP2;ratioP2;P2;SDS_P1;SDS_P2;PMS_P1;PMS_P2;Temp;Humidity;BMP_temperature;BMP_pressure;BME280_temperature;BME280_humidity;BME280_pressure;Samples;Min_cycle;Max_cycle;Signal;HPM_P1;HPM_P2
2023/03/25 00:02:15;;;;;;;0.30;0.20;;;8.10;99.90;;;;;;5074165;28;20532;-79
2023/03/25 00:04:42;;;;;;;0.30;0.20;;;7.90;99.90;;;;;;5075438;28;20445;-79
2023/03/25 00:07:10;;;;;;;0.30;0.30;;;7.90;99.90;;;;;;5075077;28;20941;-79
2023/03/25 00:09:37;;;;;;;0.30;0.30;;;7.70;99.90;;;;;;5075219;28;20486;-79
2023/03/25 00:12:04;;;;;;;0.30;0.20;;;7.70;99.90;;;;;;5075287;28;20444;-79
2023/03/25 00:14:31;;;;;;;0.30;0.30;;;7.60;99.90;;;;;;5074911;28;20915;-79
2023/03/25 00:17:00;;;;;;;0.30;0.30;;;7.40;99.90;;;;;;5074870;28;20945;-78
2023/03/25 00:19:27;;;;;;;0.30;0.30;;;7.40;99.90;;;;;;5075068;28;20505;-77
2023/03/25 00:21:53;;;;;;;0.30;0.30;;;7.40;99.90;;;;;;5075055;28;20485;-78
2023/03/25 00:24:21;;;;;;;0.37;0.30;;;7.40;99.90;;;;;;5074978;28;20441;-78
2023/03/25 00:26:48;;;;;;;0.50;0.30;;;7.30;99.90;;;;;;5075787;28;20468;-78
2023/03/25 00:29:16;;;;;;;0.30;0.20;;;7.30;99.90;;;;;;5075046;28;20477;-78
2023/03/25 00:31:43;;;;;;;0.30;0.30;;;7.20;99.90;;;;;;5075016;28;20429;-78
2023/03/25 00:34:13;;;;;;;0.30;0.30;;;7.20;99.90;;;;;;5074902;28;20449;-78
2023/03/25 00:36:42;;;;;;;0.30;0.30;;;7.10;99.90;;;;;;5074883;28;20536;-78
2023/03/25 00:39:09;;;;;;;0.40;0.40;;;7.10;99.90;;;;;;5074674;28;20469;-78
2023/03/25 00:41:40;;;;;;;0.30;0.30;;;7.00;99.90;;;;;;5074661;28;20482;-78
2023/03/25 00:44:07;;;;;;;0.40;0.40;;;7.00;99.90;;;;;;5074711;28;20516;-78
2023/03/25 00:46:34;;;;;;;0.30;0.30;;;7.00;99.90;;;;;;5074316;28;20442;-78
2023/03/25 00:49:01;;;;;;;0.30;0.30;;;7.00;99.90;;;;;;5074229;28;20492;-78
2023/03/25 00:51:30;;;;;;;0.73;0.30;;;7.00;99.90;;;;;;5074530;28;20457;-78
2023/03/25 00:53:59;;;;;;;0.30;0.20;;;6.90;99.90;;;;;;5074706;28;20464;-78
2023/03/25 00:56:26;;;;;;;0.30;0.30;;;6.90;99.90;;;;;;5074408;28;20527;-78
2023/03/25 00:58:54;;;;;;;0.30;0.30;;;6.90;99.90;;;;;;5074336;28;20501;-78
2023/03/25 01:01:26;;;;;;;0.30;0.30;;;6.80;99.90;;;;;;5074278;28;20481;-78
2023/03/25 01:03:56;;;;;;;0.40;0.30;;;6.70;99.90;;;;;;5074312;28;20434;-78
2023/03/25 01:06:27;;;;;;;0.30;0.30;;;6.70;99.90;;;;;;5074280;28;20468;-78
2023/03/25 01:08:55;;;;;;;0.30;0.30;;;6.70;99.90;;;;;;5073853;28;20978;-78
2023/03/25 01:11:24;;;;;;;2.30;0.97;;;6.70;99.90;;;;;;5074518;28;20459;-78
2023/03/25 01:13:51;;;;;;;0.30;0.20;;;6.70;99.90;;;;;;5073705;28;20443;-78
2023/03/25 01:16:19;;;;;;;1.37;0.30;;;6.60;99.90;;;;;;5073750;28;20971;-78
2023/03/25 01:18:45;;;;;;;0.30;0.30;;;6.60;99.90;;;;;;5073913;28;20811;-78
2023/03/25 01:21:12;;;;;;;0.30;0.30;;;6.60;99.90;;;;;;5073561;28;20481;-78
2023/03/25 01:23:39;;;;;;;0.40;0.40;;;6.60;99.90;;;;;;5073914;28;20457;-78
2023/03/25 01:26:06;;;;;;;21.83;0.50;;;6.70;99.90;;;;;;5073891;28;20453;-78
2023/03/25 01:28:33;;;;;;;0.30;0.30;;;6.70;99.90;;;;;;5073778;28;20474;-77
2023/03/25 01:31:01;;;;;;;0.30;0.30;;;6.70;99.90;;;;;;5073797;28;20452;-78
2023/03/25 01:33:29;;;;;;;0.30;0.30;;;6.70;99.90;;;;;;5073756;28;20445;-78
2023/03/25 01:35:56;;;;;;;0.30;0.30;;;6.70;99.90;;;;;;5073731;28;20454;-78
2023/03/25 01:38:23;;;;;;;0.30;0.30;;;6.80;99.90;;;;;;5073586;28;20473;-78
2023/03/25 01:40:50;;;;;;;0.30;0.30;;;6.80;99.90;;;;;;5073288;28;20970;-78
2023/03/25 01:43:18;;;;;;;4.00;0.77;;;6.80;99.90;;;;;;5073697;28;20565;-78
2023/03/25 01:45:45;;;;;;;0.30;0.30;;;6.80;99.90;;;;;;5073593;28;20491;-77
2023/03/25 01:48:16;;;;;;;0.30;0.30;;;6.80;99.90;;;;;;5073470;28;20456;-78
2023/03/25 01:50:49;;;;;;;0.80;0.80;;;6.90;99.90;;;;;;5073127;28;20481;-78
2023/03/25 01:53:16;;;;;;;0.33;0.30;;;6.80;99.90;;;;;;5073503;28;20433;-78
2023/03/25 01:55:44;;;;;;;0.30;0.30;;;6.80;99.90;;;;;;5073439;28;20458;-78
2023/03/25 01:58:15;;;;;;;0.33;0.30;;;6.70;99.90;;;;;;5073362;28;20449;-78
2023/03/25 02:00:44;;;;;;;0.30;0.30;;;6.70;99.90;;;;;;5073463;28;20437;-77
2023/03/25 02:03:12;;;;;;;0.30;0.30;;;6.70;99.90;;;;;;5073103;28;20960;-78
2023/03/25 02:05:46;;;;;;;0.30;0.30;;;6.70;99.90;;;;;;5073324;28;20452;-78
2023/03/25 02:08:14;;;;;;;0.30;0.30;;;6.60;99.90;;;;;;5073296;28;20437;-77
2023/03/25 02:10:44;;;;;;;0.30;0.30;;;6.60;99.90;;;;;;5073312;28;20540;-77
2023/03/25 02:13:11;;;;;;;0.30;0.20;;;6.60;99.90;;;;;;5073326;28;20469;-78
2023/03/25 02:16:02;;;;;;;0.37;0.37;;;6.60;99.90;;;;;;5072949;28;20825;-78
2023/03/25 02:18:40;;;;;;;0.30;0.30;;;6.70;99.90;;;;;;5072924;28;20863;-78
2023/03/25 02:21:46;;;;;;;0.40;0.30;;;6.70;99.90;;;;;;5073198;28;20425;-78
2023/03/25 02:24:53;;;;;;;0.30;0.30;;;6.70;99.90;;;;;;5073921;28;20457;-78
2023/03/25 02:27:32;;;;;;;0.30;0.30;;;6.70;99.90;;;;;;5077304;28;20449;-78
2023/03/25 02:30:30;;;;;;;0.30;0.30;;;6.70;99.90;;;;;;5076895;28;20973;-78
2023/03/25 02:33:41;;;;;;;0.30;0.30;;;6.80;99.90;;;;;;5077216;28;20794;-78
2023/03/25 02:36:32;;;;;;;0.30;0.30;;;7.00;99.90;;;;;;5077189;28;20417;-78
2023/03/25 02:39:02;;;;;;;0.30;0.30;;;7.10;99.90;;;;;;5076698;28;20526;-78
2023/03/25 02:41:37;;;;;;;0.50;0.50;;;7.10;99.90;;;;;;5076973;28;20485;-78
2023/03/25 02:44:07;;;;;;;0.30;0.30;;;7.00;99.90;;;;;;5077047;28;20818;-78
2023/03/25 02:46:35;;;;;;;0.97;0.30;;;7.10;99.90;;;;;;5076681;28;20832;-78
2023/03/25 02:49:06;;;;;;;0.30;0.30;;;7.00;99.90;;;;;;5076586;28;20558;-78
2023/03/25 02:51:36;;;;;;;0.30;0.30;;;6.90;99.90;;;;;;5076584;28;20425;-77
2023/03/25 02:54:09;;;;;;;0.50;0.40;;;6.80;99.90;;;;;;5076511;28;20936;-77
2023/03/25 02:56:38;;;;;;;0.30;0.30;;;6.60;99.90;;;;;;5076447;28;20433;-77
2023/03/25 02:59:06;;;;;;;0.33;0.30;;;6.50;99.90;;;;;;5076276;28;20473;-78
2023/03/25 03:01:33;;;;;;;0.30;0.30;;;6.30;99.90;;;;;;5076524;28;20481;-78
2023/03/25 03:04:01;;;;;;;0.73;0.30;;;6.20;99.90;;;;;;5076383;28;20438;-78
2023/03/25 03:06:28;;;;;;;0.30;0.30;;;6.20;99.90;;;;;;5076268;28;20473;-78
2023/03/25 03:09:15;;;;;;;0.30;0.20;;;6.20;99.90;;;;;;5076431;28;20519;-78
2023/03/25 03:11:49;;;;;;;0.30;0.30;;;6.20;99.90;;;;;;5076473;28;20425;-78
2023/03/25 03:14:44;;;;;;;0.30;0.20;;;6.20;99.90;;;;;;5076461;28;20494;-78
2023/03/25 03:17:18;;;;;;;0.30;0.20;;;6.30;99.90;;;;;;5070926;28;20461;-78
2023/03/25 03:19:49;;;;;;;0.30;0.30;;;6.20;99.90;;;;;;5076248;28;20473;-78
2023/03/25 03:22:37;;;;;;;0.30;0.30;;;6.20;99.90;;;;;;5076140;28;20492;-77
2023/03/25 03:25:14;;;;;;;0.30;0.30;;;6.10;99.90;;;;;;5076221;28;20444;-77
2023/03/25 03:27:47;;;;;;;0.30;0.30;;;6.00;99.90;;;;;;5076220;28;20433;-77
2023/03/25 03:30:20;;;;;;;0.70;0.40;;;5.90;99.90;;;;;;5075783;28;20996;-77
2023/03/25 03:32:52;;;;;;;0.30;0.30;;;5.90;99.90;;;;;;5076077;28;20487;-77
2023/03/25 03:35:24;;;;;;;0.30;0.30;;;6.00;99.90;;;;;;5075090;28;20430;-77
2023/03/25 03:37:56;;;;;;;0.30;0.20;;;6.00;99.90;;;;;;5075780;28;20517;-77
2023/03/25 03:40:28;;;;;;;0.30;0.30;;;5.90;99.90;;;;;;5075838;28;20484;-77
2023/03/25 03:42:58;;;;;;;0.30;0.20;;;5.90;99.90;;;;;;5075609;28;20469;-77
2023/03/25 03:45:30;;;;;;;0.30;0.30;;;5.90;99.90;;;;;;5075790;28;20438;-77
2023/03/25 03:48:00;;;;;;;0.30;0.30;;;5.80;99.90;;;;;;5075763;28;20495;-77
2023/03/25 03:50:31;;;;;;;0.30;0.30;;;5.80;99.90;;;;;;5075201;28;20501;-77
2023/03/25 03:53:03;;;;;;;0.30;0.30;;;5.80;99.90;;;;;;5075708;28;20520;-77
2023/03/25 03:55:38;;;;;;;0.30;0.30;;;5.90;99.90;;;;;;5075397;28;20434;-77
2023/03/25 03:58:09;;;;;;;0.30;0.20;;;6.00;99.90;;;;;;5075309;28;20920;-77
2023/03/25 04:00:42;;;;;;;3.50;0.40;;;6.00;99.90;;;;;;5075621;28;20441;-78
2023/03/25 04:03:14;;;;;;;0.57;0.57;;;5.90;99.90;;;;;;5075482;28;20465;-77
2023/03/25 04:05:44;;;;;;;0.30;0.30;;;5.90;99.90;;;;;;5075523;28;20503;-78
2023/03/25 04:08:17;;;;;;;0.30;0.30;;;6.00;99.90;;;;;;5075301;28;20441;-78
2023/03/25 04:10:52;;;;;;;0.30;0.20;;;6.00;99.90;;;;;;5075416;28;20442;-78
2023/03/25 04:13:21;;;;;;;0.30;0.20;;;6.00;99.90;;;;;;5075577;28;20430;-78
2023/03/25 04:15:49;;;;;;;0.30;0.20;;;6.10;99.90;;;;;;5075016;28;20434;-78
2023/03/25 04:18:16;;;;;;;0.30;0.20;;;6.10;99.90;;;;;;5075122;28;20437;-78
2023/03/25 04:20:43;;;;;;;0.30;0.30;;;6.10;99.90;;;;;;5075172;28;20445;-77
2023/03/25 04:23:14;;;;;;;0.30;0.30;;;6.10;99.90;;;;;;5075008;28;20494;-78
2023/03/25 04:25:41;;;;;;;0.30;0.30;;;6.10;99.90;;;;;;5075076;28;20487;-78
2023/03/25 04:28:12;;;;;;;0.30;0.30;;;6.10;99.90;;;;;;5074630;28;20953;-78
2023/03/25 04:30:40;;;;;;;0.30;0.30;;;6.10;99.90;;;;;;5074999;28;20499;-78
2023/03/25 04:33:06;;;;;;;0.30;0.27;;;6.10;99.90;;;;;;5074599;28;20445;-77
2023/03/25 04:35:33;;;;;;;0.30;0.30;;;6.10;99.90;;;;;;5074921;28;20452;-78
2023/03/25 04:38:00;;;;;;;0.30;0.20;;;6.10;99.90;;;;;;5074867;28;20456;-78
2023/03/25 04:40:27;;;;;;;0.40;0.37;;;6.10;99.90;;;;;;5074702;28;20528;-78
2023/03/25 04:42:55;;;;;;;0.30;0.20;;;6.00;99.90;;;;;;5074430;28;20481;-77
2023/03/25 04:45:24;;;;;;;0.30;0.30;;;6.00;99.90;;;;;;5074693;28;20457;-77
2023/03/25 04:47:53;;;;;;;0.47;0.40;;;6.00;99.90;;;;;;5074179;28;20519;-78
2023/03/25 04:50:22;;;;;;;0.30;0.30;;;6.00;99.90;;;;;;5074131;28;20587;-78
2023/03/25 04:52:49;;;;;;;0.30;0.30;;;6.00;99.90;;;;;;5074552;28;20441;-78
2023/03/25 04:55:18;;;;;;;0.37;0.37;;;6.00;99.90;;;;;;5074467;28;20453;-78
2023/03/25 04:57:45;;;;;;;0.40;0.40;;;6.00;99.90;;;;;;5074418;28;20503;-78
2023/03/25 05:00:13;;;;;;;0.40;0.30;;;6.00;99.90;;;;;;5074309;28;20547;-78
2023/03/25 05:02:45;;;;;;;0.30;0.30;;;6.00;99.90;;;;;;5074247;28;20489;-78
2023/03/25 05:05:17;;;;;;;0.60;0.37;;;5.90;99.90;;;;;;5074331;28;20438;-78
2023/03/25 05:07:45;;;;;;;0.30;0.30;;;5.90;99.90;;;;;;5074289;28;20456;-78
2023/03/25 05:10:13;;;;;;;0.30;0.30;;;5.90;99.90;;;;;;5074815;28;20484;-78
2023/03/25 05:12:40;;;;;;;0.30;0.30;;;5.90;99.90;;;;;;5074158;28;20453;-78
2023/03/25 05:15:08;;;;;;;0.30;0.30;;;6.00;99.90;;;;;;5074072;28;20456;-78
2023/03/25 05:17:35;;;;;;;0.30;0.30;;;6.00;99.90;;;;;;5073746;28;20956;-78
2023/03/25 05:20:05;;;;;;;0.30;0.30;;;6.00;99.90;;;;;;5073640;28;20848;-78
2023/03/25 05:22:32;;;;;;;0.30;0.30;;;6.00;99.90;;;;;;5073921;28;20509;-78
2023/03/25 05:25:01;;;;;;;0.30;0.30;;;6.10;99.90;;;;;;5073902;28;20456;-78
2023/03/25 05:27:29;;;;;;;0.30;0.30;;;6.20;99.90;;;;;;5073804;28;20461;-78
2023/03/25 05:29:57;;;;;;;0.63;0.60;;;6.20;99.90;;;;;;5073464;28;20848;-78
2023/03/25 05:32:24;;;;;;;0.30;0.20;;;6.30;99.90;;;;;;5073755;28;20450;-78
2023/03/25 05:34:52;;;;;;;0.30;0.30;;;6.40;99.90;;;;;;5073775;28;20449;-78
2023/03/25 05:37:20;;;;;;;0.30;0.30;;;6.50;99.90;;;;;;5073392;28;20933;-78
2023/03/25 05:39:47;;;;;;;0.40;0.30;;;6.60;99.90;;;;;;5073264;28;20482;-78
2023/03/25 05:42:13;;;;;;;0.30;0.30;;;6.60;99.90;;;;;;5073310;28;21023;-78
2023/03/25 05:44:45;;;;;;;2.63;0.50;;;6.60;99.90;;;;;;5073806;28;20437;-78
2023/03/25 05:47:13;;;;;;;0.30;0.30;;;6.60;99.90;;;;;;5073631;28;20434;-78
2023/03/25 05:49:40;;;;;;;0.30;0.20;;;6.60;99.90;;;;;;5073169;28;20474;-78
2023/03/25 05:52:07;;;;;;;0.30;0.27;;;6.70;99.90;;;;;;5074191;28;20469;-78
2023/03/25 05:54:37;;;;;;;0.30;0.30;;;6.80;99.90;;;;;;5073367;28;20496;-78
2023/03/25 05:57:04;;;;;;;0.30;0.30;;;6.90;99.90;;;;;;5073452;28;20908;-78
2023/03/25 05:59:32;;;;;;;0.30;0.30;;;6.90;99.90;;;;;;5072592;28;20461;-78
2023/03/25 06:01:58;;;;;;;0.30;0.30;;;6.90;99.90;;;;;;5073057;28;20479;-78
2023/03/25 06:04:25;;;;;;;0.30;0.20;;;6.90;99.90;;;;;;5073366;28;20434;-78
2023/03/25 06:06:52;;;;;;;0.30;0.30;;;6.90;99.90;;;;;;5073055;28;20945;-77
2023/03/25 06:09:19;;;;;;;0.37;0.37;;;6.90;99.90;;;;;;5072944;28;20470;-78
2023/03/25 06:11:52;;;;;;;0.30;0.20;;;6.90;99.90;;;;;;5073527;28;20438;-78
2023/03/25 06:14:19;;;;;;;0.30;0.20;;;7.00;99.90;;;;;;5073306;28;20440;-78
2023/03/25 06:16:48;;;;;;;0.60;0.40;;;7.10;99.90;;;;;;5073234;28;20464;-78
2023/03/25 06:19:17;;;;;;;0.30;0.30;;;7.20;99.90;;;;;;5073092;28;20835;-77
2023/03/25 06:21:48;;;;;;;0.40;0.40;;;7.30;99.90;;;;;;5072890;28;20465;-78
2023/03/25 06:24:14;;;;;;;0.33;0.30;;;7.40;99.90;;;;;;5072852;28;20564;-78
2023/03/25 06:26:41;;;;;;;1.03;0.43;;;7.50;99.90;;;;;;5073177;28;20460;-78
2023/03/25 06:29:09;;;;;;;0.30;0.30;;;7.70;99.90;;;;;;5072827;28;20473;-78
2023/03/25 06:31:36;;;;;;;0.40;0.40;;;7.80;99.90;;;;;;5073115;28;20468;-78
2023/03/25 06:34:04;;;;;;;0.30;0.30;;;7.90;99.90;;;;;;5072797;28;20978;-78
2023/03/25 06:36:31;;;;;;;0.33;0.30;;;8.20;99.90;;;;;;5072761;28;20453;-77
2023/03/25 06:38:58;;;;;;;0.30;0.30;;;8.40;99.90;;;;;;5073233;28;20453;-78
2023/03/25 06:41:24;;;;;;;0.30;0.30;;;8.60;99.90;;;;;;5073003;28;20813;-78
2023/03/25 06:43:52;;;;;;;1.03;0.40;;;8.70;99.90;;;;;;5072693;28;20531;-78
2023/03/25 06:46:20;;;;;;;0.30;0.30;;;8.50;99.90;;;;;;5073017;28;20520;-82
2023/03/25 06:48:46;;;;;;;0.30;0.30;;;8.30;99.90;;;;;;5072625;28;20489;-82
2023/03/25 06:51:13;;;;;;;0.30;0.30;;;8.20;99.90;;;;;;5073007;28;20434;-82
2023/03/25 06:53:40;;;;;;;0.30;0.20;;;8.20;99.90;;;;;;5072848;28;20438;-83
2023/03/25 06:56:07;;;;;;;0.30;0.20;;;8.20;99.90;;;;;;5072900;28;20449;-82
2023/03/25 06:58:34;;;;;;;0.30;0.30;;;8.40;99.90;;;;;;5072826;28;20469;-81
2023/03/25 07:01:04;;;;;;;1.50;0.30;;;8.50;99.90;;;;;;5072830;28;20444;-82
2023/03/25 07:03:32;;;;;;;0.30;0.20;;;8.60;99.90;;;;;;5072907;28;20473;-82
2023/03/25 07:05:59;;;;;;;0.30;0.30;;;8.60;99.90;;;;;;5072550;28;20815;-82
2023/03/25 07:08:26;;;;;;;0.40;0.30;;;8.80;99.90;;;;;;5072405;28;20995;-82
2023/03/25 07:10:53;;;;;;;0.57;0.33;;;8.90;99.90;;;;;;5074770;28;20450;-82
2023/03/25 07:13:20;;;;;;;0.40;0.33;;;9.00;99.90;;;;;;5076476;28;20453;-82
2023/03/25 07:15:46;;;;;;;0.30;0.30;;;8.90;99.90;;;;;;5076412;28;20460;-82
2023/03/25 07:18:13;;;;;;;0.60;0.43;;;8.80;99.90;;;;;;5076142;28;20453;-81
2023/03/25 07:20:42;;;;;;;0.30;0.30;;;8.80;99.90;;;;;;5076019;28;20968;-82
2023/03/25 07:23:08;;;;;;;0.30;0.30;;;9.00;99.90;;;;;;5076082;28;20477;-81
2023/03/25 07:25:35;;;;;;;0.30;0.20;;;9.20;99.90;;;;;;5075981;28;20437;-82
2023/03/25 07:28:02;;;;;;;0.30;0.30;;;9.20;99.90;;;;;;5075847;28;20976;-82
2023/03/25 07:30:29;;;;;;;2.00;0.40;;;9.40;99.90;;;;;;5076116;28;20454;-82
2023/03/25 07:32:56;;;;;;;0.30;0.27;;;9.60;99.90;;;;;;5075851;28;20441;-82
2023/03/25 07:35:22;;;;;;;0.30;0.30;;;9.60;99.90;;;;;;5075795;28;20918;-82
2023/03/25 07:37:50;;;;;;;0.40;0.30;;;9.70;99.90;;;;;;5075727;28;20433;-81
2023/03/25 07:40:17;;;;;;;0.30;0.30;;;9.40;99.90;;;;;;5076628;28;20473;-82
2023/03/25 07:42:44;;;;;;;0.40;0.30;;;9.40;99.90;;;;;;5075848;28;20434;-82
2023/03/25 07:45:12;;;;;;;0.40;0.30;;;9.30;99.90;;;;;;5075551;28;20952;-82
2023/03/25 07:47:38;;;;;;;0.30;0.30;;;9.20;99.90;;;;;;5075839;28;20486;-82
2023/03/25 07:50:06;;;;;;;0.30;0.30;;;9.20;99.90;;;;;;5075750;28;20477;-81
2023/03/25 07:52:34;;;;;;;0.30;0.20;;;9.20;99.90;;;;;;5075482;28;20807;-82
2023/03/25 07:55:03;;;;;;;0.30;0.30;;;9.20;99.90;;;;;;5075701;28;20450;-82
2023/03/25 07:57:29;;;;;;;0.30;0.30;;;9.30;99.90;;;;;;5075342;28;20953;-82
2023/03/25 07:59:56;;;;;;;0.30;0.30;;;9.40;99.90;;;;;;5075504;28;20477;-81
2023/03/25 08:02:23;;;;;;;0.73;0.30;;;9.50;99.90;;;;;;5075564;28;20467;-82
2023/03/25 08:04:53;;;;;;;0.30;0.30;;;9.80;99.90;;;;;;5075388;28;20481;-82
2023/03/25 08:07:20;;;;;;;0.30;0.30;;;10.10;99.90;;;;;;5075436;28;20434;-82
2023/03/25 08:09:46;;;;;;;0.30;0.30;;;10.20;99.90;;;;;;5074950;28;21078;-82
2023/03/25 08:12:15;;;;;;;0.30;0.30;;;10.30;99.90;;;;;;5075330;28;20456;-82
2023/03/25 08:14:41;;;;;;;0.30;0.20;;;10.30;99.90;;;;;;5075309;28;20872;-82
2023/03/25 08:17:08;;;;;;;0.30;0.30;;;10.40;99.90;;;;;;5074976;28;20445;-82
2023/03/25 08:19:35;;;;;;;0.30;0.30;;;10.50;99.90;;;;;;5075148;28;20476;-82
2023/03/25 08:22:02;;;;;;;0.30;0.23;;;10.40;99.90;;;;;;5074592;28;20468;-81
2023/03/25 08:24:31;;;;;;;0.37;0.30;;;10.10;99.90;;;;;;5074866;28;20488;-81
2023/03/25 08:26:59;;;;;;;0.30;0.30;;;9.70;99.90;;;;;;5075305;28;20804;-80
2023/03/25 08:29:28;;;;;;;0.30;0.30;;;9.30;99.90;;;;;;5074989;28;20832;-80
2023/03/25 08:31:55;;;;;;;0.30;0.20;;;8.90;99.90;;;;;;5074997;28;20479;-77
2023/03/25 08:34:22;;;;;;;5.03;0.40;;;8.70;99.90;;;;;;5075094;28;20456;-78
2023/03/25 08:36:49;;;;;;;0.30;0.30;;;8.40;99.90;;;;;;5074607;28;20449;-77
2023/03/25 08:39:17;;;;;;;0.30;0.20;;;8.40;99.90;;;;;;5074610;28;20458;-78
2023/03/25 08:41:44;;;;;;;0.30;0.23;;;8.50;99.90;;;;;;5075506;28;20475;-77
2023/03/25 08:44:11;;;;;;;1.33;0.60;;;8.50;99.90;;;;;;5074824;28;20481;-78
2023/03/25 08:46:39;;;;;;;0.30;0.30;;;8.70;99.90;;;;;;5075208;28;20842;-78
2023/03/25 08:49:06;;;;;;;0.30;0.30;;;8.70;99.90;;;;;;5074073;28;20481;-78
2023/03/25 08:51:33;;;;;;;0.30;0.30;;;8.70;99.90;;;;;;5074609;28;20456;-78
2023/03/25 08:54:00;;;;;;;0.30;0.23;;;8.70;99.90;;;;;;5074379;28;20933;-78
2023/03/25 08:56:26;;;;;;;0.30;0.20;;;8.60;99.90;;;;;;5074460;28;20454;-78
2023/03/25 08:58:53;;;;;;;0.50;0.30;;;8.50;99.90;;;;;;5074171;28;20453;-78
2023/03/25 09:01:20;;;;;;;0.30;0.30;;;8.30;99.90;;;;;;5074388;28;20449;-78
2023/03/25 09:03:48;;;;;;;0.30;0.30;;;8.30;99.90;;;;;;5073990;28;20513;-78
2023/03/25 09:06:15;;;;;;;0.30;0.30;;;8.20;99.90;;;;;;5074039;28;20440;-78
2023/03/25 09:08:42;;;;;;;0.30;0.30;;;8.10;99.90;;;;;;5074214;28;20464;-78
2023/03/25 09:11:14;;;;;;;0.30;0.30;;;8.10;99.90;;;;;;5073887;28;20446;-78
2023/03/25 09:13:43;;;;;;;0.30;0.30;;;8.10;99.90;;;;;;5074559;28;20877;-78
2023/03/25 09:16:15;;;;;;;0.30;0.30;;;8.20;99.90;;;;;;5074086;28;20538;-78
2023/03/25 09:18:42;;;;;;;0.30;0.27;;;8.30;99.90;;;;;;5074032;28;20478;-78
2023/03/25 09:21:10;;;;;;;0.30;0.20;;;8.30;99.90;;;;;;5073874;28;20449;-78
2023/03/25 09:23:37;;;;;;;0.30;0.20;;;8.40;99.90;;;;;;5073493;28;20832;-78
2023/03/25 09:26:04;;;;;;;0.30;0.30;;;8.50;99.90;;;;;;5073945;28;20457;-78
2023/03/25 09:28:31;;;;;;;0.30;0.20;;;8.70;99.90;;;;;;5073505;28;20973;-78
2023/03/25 09:30:58;;;;;;;0.30;0.30;;;8.70;99.90;;;;;;5073840;28;20445;-78
2023/03/25 09:33:26;;;;;;;0.30;0.20;;;8.60;99.90;;;;;;5073748;28;20451;-78
2023/03/25 09:35:53;;;;;;;0.30;0.30;;;8.60;99.90;;;;;;5073489;28;20454;-78
2023/03/25 09:38:22;;;;;;;0.37;0.37;;;8.70;99.90;;;;;;5073396;28;20806;-78
2023/03/25 09:40:49;;;;;;;0.30;0.30;;;8.80;99.90;;;;;;5073551;28;20870;-78
2023/03/25 09:43:29;;;;;;;0.30;0.30;;;8.90;99.90;;;;;;5073513;28;20499;-78
2023/03/25 09:45:59;;;;;;;0.30;0.30;;;9.00;99.90;;;;;;5073653;28;20499;-78
2023/03/25 09:48:42;;;;;;;0.30;0.20;;;9.20;99.90;;;;;;5073156;28;20473;-78
2023/03/25 09:51:34;;;;;;;0.30;0.20;;;9.30;99.90;;;;;;5073037;28;20498;-78
2023/03/25 09:54:13;;;;;;;0.37;0.30;;;9.50;99.90;;;;;;5073024;28;20442;-78
2023/03/25 09:56:43;;;;;;;0.30;0.20;;;9.60;99.90;;;;;;5073535;28;20433;-78
2023/03/25 09:59:14;;;;;;;0.30;0.20;;;10.00;99.90;;;;;;5073490;28;20476;-78
2023/03/25 10:01:51;;;;;;;0.40;0.30;;;10.30;99.90;;;;;;5073181;28;20434;-78
2023/03/25 10:04:44;;;;;;;0.30;0.30;;;10.50;99.90;;;;;;5073065;28;20989;-79
2023/03/25 10:07:24;;;;;;;0.30;0.30;;;10.50;99.90;;;;;;5073398;28;20453;-79
2023/03/25 10:09:57;;;;;;;0.40;0.30;;;10.40;99.90;;;;;;5073223;28;20807;-78
2023/03/25 10:12:35;;;;;;;0.30;0.20;;;10.30;99.90;;;;;;5073457;28;20433;-78
2023/03/25 10:15:13;;;;;;;0.30;0.30;;;10.70;99.90;;;;;;5073378;28;20437;-79
2023/03/25 10:17:55;;;;;;;0.30;0.30;;;11.40;99.90;;;;;;5073315;28;20429;-78
2023/03/25 10:20:30;;;;;;;0.40;0.40;;;11.80;99.90;;;;;;5073218;28;20501;-78
2023/03/25 10:23:07;;;;;;;0.30;0.30;;;12.30;99.90;;;;;;5073268;28;20451;-78
2023/03/25 10:25:40;;;;;;;0.30;0.20;;;12.30;99.90;;;;;;5073223;28;20457;-77
2023/03/25 10:28:12;;;;;;;0.40;0.30;;;12.60;99.90;;;;;;5073156;28;20465;-78
2023/03/25 10:30:43;;;;;;;0.47;0.47;;;13.50;99.90;;;;;;5073207;28;20445;-78
2023/03/25 10:33:17;;;;;;;0.30;0.30;;;14.90;99.90;;;;;;5072886;28;20445;-78
2023/03/25 10:35:47;;;;;;;0.30;0.30;;;15.00;99.90;;;;;;5073163;28;20483;-78
2023/03/25 10:38:19;;;;;;;0.33;0.27;;;14.50;99.90;;;;;;5073539;28;20430;-78
2023/03/25 10:40:51;;;;;;;0.40;0.30;;;14.10;99.90;;;;;;5072791;28;20446;-78
2023/03/25 10:43:24;;;;;;;0.37;0.30;;;13.40;99.90;;;;;;5072798;28;21020;-78
2023/03/25 10:45:54;;;;;;;0.30;0.30;;;13.10;99.90;;;;;;5075474;28;20473;-78
2023/03/25 10:48:24;;;;;;;0.30;0.20;;;13.90;99.90;;;;;;5076919;28;20447;-78
2023/03/25 10:50:53;;;;;;;1.17;0.30;;;14.20;99.90;;;;;;5076557;28;20481;-78
2023/03/25 10:53:24;;;;;;;0.30;0.30;;;14.20;99.90;;;;;;5076587;28;20816;-78
2023/03/25 10:55:58;;;;;;;0.40;0.30;;;13.90;99.90;;;;;;5076865;28;20430;-78
2023/03/25 10:58:25;;;;;;;0.30;0.30;;;13.70;99.90;;;;;;5076927;28;20476;-78
2023/03/25 11:00:52;;;;;;;0.63;0.30;;;13.70;99.90;;;;;;5077461;28;20497;-82
2023/03/25 11:03:24;;;;;;;0.30;0.30;;;13.90;99.90;;;;;;5076351;28;20944;-82
2023/03/25 11:05:52;;;;;;;0.40;0.30;;;14.20;99.90;;;;;;5076605;28;20812;-82
2023/03/25 11:08:22;;;;;;;0.30;0.20;;;14.40;99.90;;;;;;5076473;28;20511;-82
2023/03/25 11:10:54;;;;;;;0.40;0.33;;;15.10;99.90;;;;;;5076734;28;20821;-82
2023/03/25 11:13:24;;;;;;;0.30;0.30;;;15.80;99.90;;;;;;5076521;28;20540;-82
2023/03/25 11:15:53;;;;;;;0.40;0.30;;;15.80;99.90;;;;;;5076490;28;20436;-83
2023/03/25 11:18:24;;;;;;;0.40;0.30;;;15.50;99.90;;;;;;5076187;28;20438;-82
2023/03/25 11:20:55;;;;;;;0.30;0.30;;;15.20;99.90;;;;;;5076459;28;20529;-83
2023/03/25 11:23:26;;;;;;;0.70;0.30;;;15.10;99.90;;;;;;5076280;28;20462;-82
2023/03/25 11:25:54;;;;;;;0.30;0.30;;;14.90;99.90;;;;;;5076467;28;20470;-83
2023/03/25 11:28:32;;;;;;;0.30;0.30;;;14.50;99.90;;;;;;5076173;28;20801;-79
2023/03/25 11:31:14;;;;;;;0.40;0.30;;;14.10;99.90;;;;;;5076154;28;20440;-78
2023/03/25 11:33:43;;;;;;;0.30;0.30;;;13.40;99.90;;;;;;5075786;28;20921;-79
2023/03/25 11:36:22;;;;;;;0.30;0.30;;;13.10;99.90;;;;;;5076306;28;20438;-79
2023/03/25 11:38:55;;;;;;;0.30;0.30;;;13.00;99.90;;;;;;5075986;28;20888;-79
2023/03/25 11:41:22;;;;;;;0.30;0.30;;;13.00;99.90;;;;;;5075986;28;20436;-79
2023/03/25 11:43:51;;;;;;;0.30;0.30;;;13.10;99.90;;;;;;5075922;28;20458;-79
2023/03/25 11:46:20;;;;;;;0.40;0.40;;;13.10;99.90;;;;;;5075631;28;20917;-79
2023/03/25 11:48:48;;;;;;;0.63;0.63;;;13.10;99.90;;;;;;5075277;28;20495;-79
2023/03/25 11:51:20;;;;;;;0.40;0.30;;;13.10;99.90;;;;;;5075828;28;20440;-79
2023/03/25 11:53:53;;;;;;;0.33;0.30;;;13.10;99.90;;;;;;5075809;28;20440;-79
2023/03/25 11:56:23;;;;;;;0.40;0.30;;;12.90;99.90;;;;;;5074644;28;20459;-79
2023/03/25 11:58:51;;;;;;;0.33;0.27;;;13.10;99.90;;;;;;5075315;28;20831;-79
2023/03/25 12:01:24;;;;;;;0.30;0.30;;;13.20;99.90;;;;;;5075572;28;20454;-79
2023/03/25 12:03:52;;;;;;;0.40;0.30;;;13.10;99.90;;;;;;5075530;28;20437;-79
2023/03/25 12:06:21;;;;;;;0.30;0.30;;;13.20;99.90;;;;;;5075622;28;20469;-79
2023/03/25 12:08:52;;;;;;;0.40;0.33;;;13.40;99.90;;;;;;5075408;28;20477;-79
2023/03/25 12:11:23;;;;;;;0.30;0.30;;;13.60;99.90;;;;;;5075368;28;20461;-79
2023/03/25 12:14:14;;;;;;;0.30;0.20;;;13.70;99.90;;;;;;5075941;28;20456;-79
2023/03/25 12:16:48;;;;;;;0.30;0.30;;;13.60;99.90;;;;;;5075530;28;20473;-79
2023/03/25 12:19:24;;;;;;;0.30;0.30;;;13.40;99.90;;;;;;5075396;28;20470;-80
2023/03/25 12:22:10;;;;;;;0.30;0.30;;;13.50;99.90;;;;;;5075245;28;20425;-79
2023/03/25 12:24:49;;;;;;;1.27;0.40;;;13.40;99.90;;;;;;5074774;28;20850;-80
2023/03/25 12:27:30;;;;;;;0.40;0.30;;;13.30;99.90;;;;;;5075182;28;20444;-80
2023/03/25 12:30:07;;;;;;;0.40;0.40;;;13.20;99.90;;;;;;5075031;28;20453;-80
2023/03/25 12:32:39;;;;;;;0.30;0.20;;;13.10;99.90;;;;;;5075249;28;20442;-79
2023/03/25 12:35:27;;;;;;;0.30;0.30;;;13.00;99.90;;;;;;5075032;28;20433;-79
2023/03/25 12:38:24;;;;;;;0.50;0.30;;;13.00;99.90;;;;;;5074970;28;20521;-79
2023/03/25 12:41:19;;;;;;;0.40;0.30;;;13.00;99.90;;;;;;5075029;28;20488;-79
2023/03/25 12:43:58;;;;;;;0.30;0.23;;;12.70;99.90;;;;;;5069697;28;20457;-79
2023/03/25 12:46:49;;;;;;;0.40;0.40;;;12.30;99.90;;;;;;5074475;28;20457;-79
2023/03/25 12:49:39;;;;;;;0.40;0.33;;;12.20;99.90;;;;;;5074251;28;20556;-79
2023/03/25 12:52:11;;;;;;;0.30;0.20;;;12.20;99.90;;;;;;5074295;28;20528;-78
2023/03/25 12:54:50;;;;;;;0.40;0.30;;;11.90;99.90;;;;;;5074618;28;20430;-78
2023/03/25 12:57:28;;;;;;;0.30;0.30;;;11.70;99.90;;;;;;5075343;28;20483;-78
2023/03/25 13:00:10;;;;;;;0.30;0.30;;;11.40;99.90;;;;;;5075259;28;20473;-78
2023/03/25 13:03:11;;;;;;;0.30;0.30;;;11.30;99.90;;;;;;5074395;28;20433;-78
2023/03/25 13:05:41;;;;;;;0.30;0.20;;;11.10;99.90;;;;;;5074106;28;20555;-78
2023/03/25 13:08:13;;;;;;;0.30;0.20;;;11.00;99.90;;;;;;5073954;28;20797;-78
2023/03/25 13:10:43;;;;;;;0.30;0.30;;;11.10;99.90;;;;;;5074047;28;20411;-78
2023/03/25 13:13:12;;;;;;;0.40;0.30;;;11.20;99.90;;;;;;5073927;28;20456;-78
2023/03/25 13:15:43;;;;;;;0.40;0.40;;;11.40;99.90;;;;;;5073868;28;20445;-78